Neola, West Virginia
Current Conditions -  °F | °C
As of 9:15 AM on Monday 24 Nov 2014 (Local Time) from KHSP Reporting Station
Moderate Fog Moderate Fog  
Wind Chill: 44°   Ceiling: 100
Heat Index: 48°   Visibility: 0mi
Dew Point: 48°   Wind: 9mph
Humidity: 100%   Direction: 200°SSW
Pressure: 29.7"   Gusts: 17mph
Location:  37.97°N, 80.13°W
Report Text: KHSP 241415Z AUTO 20008G15KT M1/4SM FG OVC001 09/09 A2970 RMK AO2 T00910091
Loading
Personal Weather Stations






























Interactive Weather Map New forecast layout! Learn more

10-Day Weather Forecast

Advertisements
Track Severe Weather on mobile